Time;durP1;ratioP1;P1;durP2;ratioP2;P2;SDS_P1;SDS_P2;PMS_P1;PMS_P2;Temp;Humidity;BMP_temperature;BMP_pressure;BME280_temperature;BME280_humidity;BME280_pressure;Samples;Min_cycle;Max_cycle;Signal;HPM_P1;HPM_P2
2023/11/28 00:01:45;;;;;;;8.20;8.10;;;5.10;99.90;;;;;;5015113;28;20225;-78
2023/11/28 00:04:13;;;;;;;8.82;8.73;;;5.00;61.70;;;;;;5013585;28;20528;-78
2023/11/28 00:06:42;;;;;;;8.50;8.40;;;5.10;99.90;;;;;;5013338;28;20202;-78
2023/11/28 00:09:11;;;;;;;8.20;8.00;;;5.10;99.90;;;;;;5015642;28;20833;-78
2023/11/28 00:11:39;;;;;;;8.30;8.10;;;5.00;99.90;;;;;;5016624;28;20671;-79
2023/11/28 00:14:07;;;;;;;8.55;8.35;;;5.00;99.90;;;;;;5014428;28;20583;-79
2023/11/28 00:16:35;;;;;;;9.02;8.80;;;5.00;99.90;;;;;;5019014;28;20286;-77
2023/11/28 00:19:05;;;;;;;8.85;8.60;;;5.00;1.00;;;;;;5017670;28;20266;-79
2023/11/28 00:21:33;;;;;;;8.67;8.47;;;4.90;99.90;;;;;;5013586;28;20201;-80
2023/11/28 00:24:02;;;;;;;8.20;8.05;;;5.00;1.00;;;;;;5015153;28;21033;-79
2023/11/28 00:26:30;;;;;;;8.20;8.10;;;5.00;1.00;;;;;;5015534;28;20580;-80
2023/11/28 00:28:58;;;;;;;8.40;8.20;;;5.00;36.80;;;;;;5015991;28;20460;-78
2023/11/28 00:31:26;;;;;;;8.30;8.18;;;5.00;1.00;;;;;;5015323;28;20190;-78
2023/11/28 00:33:55;;;;;;;8.95;8.30;;;5.00;13.50;;;;;;5016234;28;20226;-78
2023/11/28 00:36:24;;;;;;;8.40;8.30;;;5.10;99.90;;;;;;5014587;28;20198;-79
2023/11/28 00:38:53;;;;;;;8.73;8.52;;;5.00;99.90;;;;;;5014303;28;21003;-80
2023/11/28 00:41:24;;;;;;;8.70;8.60;;;5.10;99.90;;;;;;5014045;28;20717;-78
2023/11/28 00:43:52;;;;;;;8.60;8.50;;;5.00;94.00;;;;;;5012129;28;20762;-80
2023/11/28 00:46:22;;;;;;;8.70;8.60;;;5.00;99.90;;;;;;5016759;28;20187;-78
2023/11/28 00:48:50;;;;;;;9.00;8.80;;;5.00;99.90;;;;;;5013372;28;20198;-79
2023/11/28 00:51:18;;;;;;;8.85;8.70;;;5.10;99.90;;;;;;5006862;28;20487;-78
2023/11/28 00:53:48;;;;;;;8.90;8.80;;;5.10;1.00;;;;;;5016998;28;20486;-80
2023/11/28 00:56:19;;;;;;;9.63;9.00;;;5.10;99.90;;;;;;5017366;28;20207;-76
2023/11/28 00:58:48;;;;;;;8.80;8.70;;;5.00;99.90;;;;;;5014279;28;20574;-78
2023/11/28 01:01:18;;;;;;;9.10;8.90;;;5.00;27.70;;;;;;5015294;28;20599;-79
2023/11/28 01:03:47;;;;;;;7.88;7.78;;;5.10;1.00;;;;;;5013194;28;20221;-78
2023/11/28 01:06:15;;;;;;;8.10;8.00;;;5.10;1.00;;;;;;5018762;28;20213;-76
2023/11/28 01:08:43;;;;;;;8.13;8.03;;;5.20;99.90;;;;;;5020823;28;20198;-78
2023/11/28 01:11:13;;;;;;;8.40;8.20;;;5.20;1.00;;;;;;5015128;28;20454;-79
2023/11/28 01:13:43;;;;;;;7.68;7.57;;;5.20;64.60;;;;;;5019121;28;20210;-78
2023/11/28 01:16:12;;;;;;;8.00;7.90;;;5.10;6.20;;;;;;5020194;28;20222;-78
2023/11/28 01:18:40;;;;;;;8.27;8.10;;;5.10;1.00;;;;;;5021301;28;20283;-78
2023/11/28 01:21:09;;;;;;;7.97;7.88;;;5.10;99.90;;;;;;5018167;28;20801;-79
2023/11/28 01:23:37;;;;;;;8.30;8.10;;;5.10;99.90;;;;;;5018424;28;20210;-80
2023/11/28 01:26:06;;;;;;;8.00;7.90;;;5.10;99.90;;;;;;5017153;28;20973;-79
2023/11/28 01:28:36;;;;;;;8.30;8.20;;;5.10;1.00;;;;;;5018286;28;20199;-78
2023/11/28 01:31:05;;;;;;;8.40;8.30;;;5.10;1.00;;;;;;5018712;28;20467;-79
2023/11/28 01:33:33;;;;;;;8.35;8.25;;;5.10;99.90;;;;;;5019682;28;20222;-79
2023/11/28 01:36:04;;;;;;;8.40;8.30;;;5.10;99.90;;;;;;5018323;28;20730;-80
2023/11/28 01:38:33;;;;;;;8.20;8.10;;;5.10;1.00;;;;;;5017204;28;20207;-79
2023/11/28 01:41:01;;;;;;;8.20;8.10;;;5.10;1.00;;;;;;5016624;28;20210;-79
2023/11/28 01:43:30;;;;;;;8.30;8.20;;;5.10;99.90;;;;;;5018955;28;20481;-76
2023/11/28 01:46:03;;;;;;;8.30;8.10;;;5.10;1.00;;;;;;5018634;28;20639;-78
2023/11/28 01:48:32;;;;;;;8.60;8.40;;;5.10;99.90;;;;;;5015774;28;20476;-79
2023/11/28 01:51:01;;;;;;;8.40;8.30;;;5.10;1.00;;;;;;5017720;28;20248;-79
2023/11/28 01:53:31;;;;;;;8.40;8.30;;;5.20;99.90;;;;;;5019458;28;20476;-77
2023/11/28 01:56:00;;;;;;;8.20;8.10;;;5.10;27.30;;;;;;5018732;28;20199;-79
2023/11/28 01:58:29;;;;;;;8.80;8.70;;;5.10;70.90;;;;;;5017589;28;20644;-79
2023/11/28 02:00:58;;;;;;;7.78;7.68;;;5.10;99.90;;;;;;5021439;28;20206;-77
2023/11/28 02:03:29;;;;;;;8.10;8.00;;;5.20;1.00;;;;;;5019232;28;20230;-79
2023/11/28 02:05:58;;;;;;;8.50;8.40;;;5.30;1.00;;;;;;5015942;28;20198;-80
2023/11/28 02:08:27;;;;;;;8.30;8.20;;;5.30;99.90;;;;;;5018938;28;20574;-80
2023/11/28 02:10:55;;;;;;;8.97;8.77;;;5.30;1.00;;;;;;5020466;28;20691;-78
2023/11/28 02:13:23;;;;;;;8.40;8.30;;;5.30;99.90;;;;;;5019322;28;20489;-78
2023/11/28 02:15:54;;;;;;;8.80;8.50;;;5.30;1.00;;;;;;5017455;28;20462;-78
2023/11/28 02:18:22;;;;;;;8.30;8.20;;;5.40;25.10;;;;;;5019644;28;20458;-78
2023/11/28 02:20:52;;;;;;;8.37;8.27;;;5.30;99.90;;;;;;5019158;28;20202;-77
2023/11/28 02:23:20;;;;;;;8.48;8.27;;;5.30;99.90;;;;;;5016300;28;20485;-78
2023/11/28 02:25:51;;;;;;;8.60;8.40;;;5.40;1.00;;;;;;5019501;28;20202;-79
2023/11/28 02:28:24;;;;;;;8.80;8.70;;;5.50;99.90;;;;;;5018135;28;20461;-79
2023/11/28 02:30:53;;;;;;;8.60;8.50;;;5.40;99.90;;;;;;5020672;28;20480;-77
2023/11/28 02:33:22;;;;;;;8.50;8.40;;;5.50;99.90;;;;;;5018376;28;20229;-79
2023/11/28 02:35:50;;;;;;;8.85;8.75;;;5.40;99.90;;;;;;5017040;28;20481;-79
2023/11/28 02:38:18;;;;;;;8.50;8.40;;;5.40;1.00;;;;;;5017641;28;20211;-78
2023/11/28 02:40:46;;;;;;;8.70;8.50;;;5.40;99.90;;;;;;5017361;28;20296;-78
2023/11/28 02:43:17;;;;;;;8.50;8.40;;;5.50;99.90;;;;;;5017760;28;20226;-77
2023/11/28 02:45:46;;;;;;;9.00;8.90;;;5.60;99.90;;;;;;5014217;28;20222;-78
2023/11/28 02:48:14;;;;;;;8.80;8.70;;;5.60;99.90;;;;;;5019340;28;20461;-78
2023/11/28 02:50:43;;;;;;;8.90;8.80;;;5.50;1.00;;;;;;5017256;28;20333;-78
2023/11/28 02:53:12;;;;;;;8.98;8.60;;;5.60;99.90;;;;;;5016068;28;20215;-80
2023/11/28 02:55:40;;;;;;;8.80;8.70;;;5.40;1.00;;;;;;5018680;28;20219;-79
2023/11/28 02:58:08;;;;;;;9.00;8.90;;;5.50;99.90;;;;;;5015300;28;20500;-79
2023/11/28 03:00:36;;;;;;;9.05;8.93;;;5.50;99.90;;;;;;5018714;28;20205;-79
2023/11/28 03:03:06;;;;;;;10.25;10.05;;;5.40;1.00;;;;;;5017345;28;20244;-79
2023/11/28 03:05:34;;;;;;;10.00;9.80;;;5.50;1.00;;;;;;5018017;28;20294;-78
2023/11/28 03:08:03;;;;;;;10.20;10.00;;;5.50;1.00;;;;;;5017411;28;20198;-79
2023/11/28 03:10:31;;;;;;;9.75;9.60;;;5.40;99.90;;;;;;5016032;28;20198;-79
2023/11/28 03:12:59;;;;;;;10.37;10.17;;;5.30;1.00;;;;;;5015746;28;20290;-79
2023/11/28 03:15:27;;;;;;;10.67;10.47;;;5.50;84.50;;;;;;5017187;28;20472;-77
2023/11/28 03:17:55;;;;;;;9.75;9.65;;;5.40;1.00;;;;;;5015575;28;20445;-79
2023/11/28 03:20:25;;;;;;;9.98;9.88;;;5.40;1.00;;;;;;5017209;28;20218;-79
2023/11/28 03:22:53;;;;;;;9.40;9.20;;;5.40;99.90;;;;;;5018065;28;20743;-79
2023/11/28 03:25:21;;;;;;;9.13;9.02;;;5.40;38.80;;;;;;5017187;28;20456;-80
2023/11/28 03:27:50;;;;;;;9.40;9.30;;;5.40;1.00;;;;;;5014845;28;20199;-79
2023/11/28 03:30:21;;;;;;;9.97;9.77;;;5.40;1.00;;;;;;5017138;28;20511;-79
2023/11/28 03:32:50;;;;;;;10.07;9.90;;;5.40;1.00;;;;;;5018274;28;20449;-79
2023/11/28 03:35:18;;;;;;;9.80;9.60;;;5.50;99.90;;;;;;5017983;28;20476;-80
2023/11/28 03:37:47;;;;;;;9.40;9.20;;;5.60;99.90;;;;;;5015076;28;20582;-78
2023/11/28 03:40:16;;;;;;;10.00;9.80;;;5.50;99.90;;;;;;5017050;28;20198;-80
2023/11/28 03:42:44;;;;;;;9.90;9.80;;;5.60;99.90;;;;;;5017361;28;20453;-79
2023/11/28 03:45:12;;;;;;;10.00;9.80;;;5.50;99.90;;;;;;5017939;28;20195;-79
2023/11/28 03:47:41;;;;;;;9.83;9.70;;;5.50;99.90;;;;;;5017068;28;20198;-79
2023/11/28 03:50:10;;;;;;;9.97;9.77;;;5.60;99.90;;;;;;5017963;28;21944;-79
2023/11/28 03:52:39;;;;;;;10.27;10.07;;;5.60;99.90;;;;;;5018756;28;20861;-79
2023/11/28 03:55:10;;;;;;;10.30;10.10;;;5.50;99.90;;;;;;5016062;28;20711;-79
2023/11/28 03:57:38;;;;;;;10.40;10.20;;;5.60;99.90;;;;;;5016400;28;20213;-79
2023/11/28 04:00:09;;;;;;;10.20;10.00;;;5.60;99.90;;;;;;5013129;28;20814;-79
2023/11/28 04:02:38;;;;;;;10.60;10.40;;;5.60;99.90;;;;;;5017679;28;20457;-79
2023/11/28 04:05:08;;;;;;;10.80;10.60;;;5.50;99.90;;;;;;5016611;28;20470;-78
2023/11/28 04:07:37;;;;;;;10.83;10.63;;;5.60;1.00;;;;;;5016646;28;21036;-79
2023/11/28 04:10:06;;;;;;;10.80;10.50;;;5.60;99.90;;;;;;5016868;28;20470;-79
2023/11/28 04:12:35;;;;;;;11.27;10.67;;;5.60;99.90;;;;;;5018074;28;20202;-81
2023/11/28 04:15:04;;;;;;;10.40;10.20;;;5.60;1.00;;;;;;5012865;28;20585;-79
2023/11/28 04:17:32;;;;;;;10.70;10.50;;;5.60;1.00;;;;;;5017456;28;20446;-80
2023/11/28 04:20:01;;;;;;;10.70;10.50;;;5.60;99.90;;;;;;5019138;28;20519;-80
2023/11/28 04:22:29;;;;;;;11.13;10.93;;;5.60;99.90;;;;;;5020689;28;20461;-79
2023/11/28 04:24:57;;;;;;;10.90;10.70;;;5.50;99.90;;;;;;5019147;28;20580;-78
2023/11/28 04:27:25;;;;;;;10.70;10.50;;;5.50;1.00;;;;;;5016921;28;20450;-79
2023/11/28 04:29:55;;;;;;;10.80;10.60;;;5.50;1.00;;;;;;5016609;28;20480;-79
2023/11/28 04:32:24;;;;;;;11.20;11.00;;;5.50;1.00;;;;;;5015007;28;20199;-79
2023/11/28 04:34:53;;;;;;;11.67;11.40;;;5.50;1.00;;;;;;5015624;28;20484;-79
2023/11/28 04:37:21;;;;;;;11.00;10.80;;;5.60;1.00;;;;;;5016450;28;20471;-79
2023/11/28 04:39:50;;;;;;;11.10;10.90;;;5.60;1.00;;;;;;5016082;28;20464;-78
2023/11/28 04:42:18;;;;;;;11.13;10.93;;;5.60;99.90;;;;;;5017128;28;20541;-79
2023/11/28 04:44:46;;;;;;;11.60;11.40;;;5.60;99.90;;;;;;5019624;28;20464;-79
2023/11/28 04:47:16;;;;;;;11.40;11.10;;;5.60;99.90;;;;;;5018020;28;20467;-80
2023/11/28 04:49:44;;;;;;;11.03;10.83;;;5.70;1.00;;;;;;5022157;28;20450;-79
2023/11/28 04:52:12;;;;;;;11.10;10.90;;;5.70;1.00;;;;;;5024334;28;22607;-80
2023/11/28 04:54:41;;;;;;;10.80;10.60;;;5.70;99.90;;;;;;5024003;28;21216;-82
2023/11/28 04:57:09;;;;;;;11.17;10.97;;;5.70;99.90;;;;;;5018909;28;20472;-79
2023/11/28 04:59:37;;;;;;;10.93;10.73;;;5.70;1.00;;;;;;5017332;28;20461;-80
2023/11/28 05:02:05;;;;;;;10.73;10.53;;;5.70;99.90;;;;;;5017261;28;20473;-80
2023/11/28 05:04:35;;;;;;;10.60;10.40;;;5.80;99.90;;;;;;5016006;28;20481;-80
2023/11/28 05:07:04;;;;;;;11.10;10.70;;;5.80;1.00;;;;;;5016796;28;20468;-79
2023/11/28 05:09:32;;;;;;;10.70;10.50;;;5.80;99.90;;;;;;5019557;28;20501;-81
2023/11/28 05:12:00;;;;;;;10.50;10.30;;;5.90;99.90;;;;;;5016828;28;20531;-78
2023/11/28 05:14:30;;;;;;;10.80;10.60;;;5.80;99.90;;;;;;5015171;28;20446;-78
2023/11/28 05:16:58;;;;;;;11.00;10.80;;;5.80;39.20;;;;;;5015776;28;20708;-79
2023/11/28 05:19:26;;;;;;;10.93;10.73;;;5.90;36.90;;;;;;5014860;28;20512;-78
2023/11/28 05:21:56;;;;;;;10.60;10.40;;;6.00;1.00;;;;;;5015373;28;20458;-78
2023/11/28 05:24:24;;;;;;;10.37;10.17;;;6.00;99.90;;;;;;5019269;28;20556;-79
2023/11/28 05:26:52;;;;;;;10.70;10.50;;;6.00;1.00;;;;;;5017594;28;20452;-80
2023/11/28 05:29:21;;;;;;;10.73;10.53;;;5.90;1.00;;;;;;5023597;28;20503;-80
2023/11/28 05:31:49;;;;;;;11.10;10.80;;;5.90;1.00;;;;;;5012393;28;20470;-79
2023/11/28 05:34:18;;;;;;;11.13;10.83;;;5.90;1.00;;;;;;5018197;28;20552;-77
2023/11/28 05:36:46;;;;;;;10.40;10.20;;;6.00;99.90;;;;;;5017012;28;20478;-77
2023/11/28 05:39:16;;;;;;;10.90;10.70;;;6.00;1.00;;;;;;5016455;28;20464;-79
2023/11/28 05:41:44;;;;;;;10.80;10.60;;;6.00;1.00;;;;;;5016650;28;20451;-77
2023/11/28 05:44:12;;;;;;;11.60;11.20;;;6.00;1.00;;;;;;5015617;28;20481;-78
2023/11/28 05:46:41;;;;;;;11.43;10.90;;;6.00;37.40;;;;;;5014665;28;20448;-78
2023/11/28 05:49:09;;;;;;;11.17;10.87;;;6.00;1.00;;;;;;5012848;28;20465;-79
2023/11/28 05:51:37;;;;;;;11.07;10.87;;;6.00;99.90;;;;;;5015350;28;20458;-78
2023/11/28 05:54:05;;;;;;;11.07;10.50;;;6.00;1.00;;;;;;5013748;28;20555;-78
2023/11/28 05:56:35;;;;;;;11.13;10.93;;;6.00;1.00;;;;;;5014611;28;20469;-77
2023/11/28 05:59:03;;;;;;;11.00;10.80;;;6.00;99.90;;;;;;5015587;28;20851;-77
2023/11/28 06:01:32;;;;;;;11.10;10.90;;;5.90;99.90;;;;;;5018711;28;20458;-77
2023/11/28 06:04:00;;;;;;;11.20;11.00;;;6.00;99.90;;;;;;5009791;28;20485;-78
2023/11/28 06:06:28;;;;;;;11.60;11.40;;;5.90;99.90;;;;;;5017790;28;20446;-78
2023/11/28 06:08:56;;;;;;;11.10;10.90;;;5.90;1.00;;;;;;5019539;28;20466;-77
2023/11/28 06:11:25;;;;;;;11.50;11.30;;;5.90;99.90;;;;;;5017679;28;20445;-77
2023/11/28 06:13:54;;;;;;;11.67;11.37;;;5.80;99.90;;;;;;5020452;28;20483;-77
2023/11/28 06:16:22;;;;;;;12.13;11.83;;;5.80;57.50;;;;;;5017958;28;20469;-78
2023/11/28 06:18:51;;;;;;;11.33;10.90;;;5.70;1.00;;;;;;5018100;28;20996;-76
2023/11/28 06:21:19;;;;;;;11.20;10.90;;;5.70;1.00;;;;;;5017978;28;21057;-77
2023/11/28 06:23:47;;;;;;;10.60;10.40;;;5.70;95.90;;;;;;5018207;28;20492;-76
2023/11/28 06:26:15;;;;;;;10.70;10.40;;;5.60;1.00;;;;;;5018909;28;20468;-77
2023/11/28 06:28:43;;;;;;;10.10;9.90;;;5.60;99.90;;;;;;5020594;28;20457;-77
2023/11/28 06:31:13;;;;;;;10.40;10.20;;;5.50;99.90;;;;;;5016397;28;20538;-77
2023/11/28 06:33:41;;;;;;;10.60;10.30;;;5.50;99.90;;;;;;5017405;28;20468;-77
2023/11/28 06:36:10;;;;;;;10.67;10.37;;;5.50;99.90;;;;;;5019390;28;20503;-77
2023/11/28 06:38:38;;;;;;;10.60;10.27;;;5.60;99.90;;;;;;5019927;28;20453;-77
2023/11/28 06:41:07;;;;;;;11.03;10.83;;;5.60;6.30;;;;;;5018586;28;20256;-77
2023/11/28 06:43:36;;;;;;;10.70;10.50;;;5.60;99.90;;;;;;5019471;28;20981;-77
2023/11/28 06:46:05;;;;;;;10.50;10.30;;;5.60;1.00;;;;;;5017607;28;20547;-77
2023/11/28 06:48:37;;;;;;;10.83;10.63;;;5.60;1.00;;;;;;5022562;28;20986;-78
2023/11/28 06:51:07;;;;;;;10.30;10.10;;;5.60;1.00;;;;;;5013136;28;20453;-76
2023/11/28 06:53:35;;;;;;;11.07;10.53;;;5.50;99.90;;;;;;5021128;28;20497;-77
2023/11/28 06:56:04;;;;;;;10.70;10.30;;;5.50;99.90;;;;;;5016473;28;20453;-76
2023/11/28 06:58:32;;;;;;;10.43;10.23;;;5.50;99.90;;;;;;5020067;28;20449;-77
2023/11/28 07:01:00;;;;;;;9.98;9.77;;;5.40;99.90;;;;;;5017116;28;20468;-77
2023/11/28 07:03:31;;;;;;;10.37;9.87;;;5.50;99.90;;;;;;5015665;28;20222;-77
2023/11/28 07:06:01;;;;;;;9.83;9.63;;;5.40;99.90;;;;;;5016764;28;20457;-77
2023/11/28 07:08:29;;;;;;;10.40;10.10;;;5.40;99.90;;;;;;5018192;28;20469;-78
2023/11/28 07:10:57;;;;;;;9.82;9.63;;;5.40;99.90;;;;;;5016140;28;20464;-78
2023/11/28 07:13:26;;;;;;;9.37;9.20;;;5.30;6.20;;;;;;5019451;28;20230;-77
2023/11/28 07:15:54;;;;;;;9.73;9.50;;;5.30;1.00;;;;;;5016319;28;20873;-78
2023/11/28 07:18:22;;;;;;;9.43;9.23;;;5.20;1.00;;;;;;5019665;28;20476;-78
2023/11/28 07:20:50;;;;;;;9.00;8.90;;;5.20;1.00;;;;;;5014403;28;20457;-77
2023/11/28 07:23:20;;;;;;;9.40;9.30;;;5.20;1.00;;;;;;5019157;28;20478;-76
2023/11/28 07:25:49;;;;;;;9.15;8.95;;;5.20;1.00;;;;;;5019917;28;20657;-77
2023/11/28 07:28:17;;;;;;;9.80;9.50;;;5.20;1.00;;;;;;5017991;28;20199;-77
2023/11/28 07:30:46;;;;;;;9.83;9.63;;;5.10;1.00;;;;;;5018023;28;20457;-77
2023/11/28 07:33:14;;;;;;;9.60;9.40;;;5.10;1.00;;;;;;5019078;28;20480;-77
2023/11/28 07:35:42;;;;;;;9.98;9.68;;;5.10;1.00;;;;;;5017966;28;20539;-77
2023/11/28 07:38:10;;;;;;;9.40;9.20;;;5.10;99.90;;;;;;5020890;28;20284;-77
2023/11/28 07:40:40;;;;;;;9.55;9.35;;;5.10;99.90;;;;;;5017730;28;20199;-77
2023/11/28 07:43:09;;;;;;;9.10;8.90;;;5.00;99.90;;;;;;5016523;28;20250;-77
2023/11/28 07:45:37;;;;;;;9.10;8.90;;;4.90;99.90;;;;;;5019083;28;20977;-76
2023/11/28 07:48:06;;;;;;;9.00;8.80;;;4.90;99.90;;;;;;5018284;28;20286;-77
2023/11/28 07:50:34;;;;;;;9.20;8.93;;;4.90;99.90;;;;;;5021085;28;20207;-77
2023/11/28 07:53:03;;;;;;;8.85;8.70;;;4.90;3.70;;;;;;5017123;28;20455;-76
2023/11/28 07:55:31;;;;;;;9.30;9.10;;;4.90;37.50;;;;;;5017078;28;20199;-77
2023/11/28 07:58:01;;;;;;;8.80;8.70;;;4.90;64.30;;;;;;5017127;28;20278;-76
2023/11/28 08:00:33;;;;;;;9.25;9.05;;;4.80;99.90;;;;;;5013819;28;20543;-77
2023/11/28 08:03:02;;;;;;;9.13;8.93;;;4.80;1.00;;;;;;5014444;28;20220;-77
2023/11/28 08:05:31;;;;;;;9.33;9.13;;;4.60;1.00;;;;;;5017666;28;20278;-78
2023/11/28 08:07:59;;;;;;;8.80;8.70;;;4.70;1.00;;;;;;5018069;28;20456;-78
2023/11/28 08:10:28;;;;;;;8.57;8.37;;;4.70;1.00;;;;;;5015528;28;20203;-78
2023/11/28 08:12:56;;;;;;;8.90;8.70;;;4.60;1.00;;;;;;5022116;28;20470;-79
2023/11/28 08:15:27;;;;;;;8.70;8.50;;;4.60;66.00;;;;;;5014973;28;20206;-79
2023/11/28 08:17:55;;;;;;;8.43;8.27;;;4.70;1.00;;;;;;5019968;28;20477;-78
2023/11/28 08:20:23;;;;;;;8.38;8.25;;;4.60;1.00;;;;;;5013899;28;20213;-78
2023/11/28 08:22:52;;;;;;;8.32;8.18;;;4.60;1.00;;;;;;5019328;28;20195;-78
2023/11/28 08:25:20;;;;;;;8.23;8.10;;;4.60;1.00;;;;;;5017075;28;20712;-78
2023/11/28 08:27:48;;;;;;;8.90;8.60;;;4.60;1.00;;;;;;5019190;28;20721;-78
2023/11/28 08:30:16;;;;;;;8.60;8.40;;;4.60;1.00;;;;;;5019242;28;20202;-79
2023/11/28 08:32:45;;;;;;;9.20;9.00;;;4.60;1.00;;;;;;5019151;28;20801;-78
2023/11/28 08:35:13;;;;;;;8.73;8.63;;;4.60;1.00;;;;;;5019790;28;20738;-78
2023/11/28 08:37:42;;;;;;;10.52;10.02;;;4.60;14.50;;;;;;5015929;28;20234;-78
2023/11/28 08:40:11;;;;;;;9.55;9.25;;;4.60;1.00;;;;;;5015464;28;20207;-79
2023/11/28 08:42:39;;;;;;;8.80;8.70;;;4.60;1.00;;;;;;5020666;28;20216;-78
2023/11/28 08:45:09;;;;;;;8.70;8.50;;;4.60;1.00;;;;;;5018252;28;20221;-78
2023/11/28 08:47:37;;;;;;;8.80;8.60;;;4.60;1.00;;;;;;5016989;28;20194;-78
2023/11/28 08:50:11;;;;;;;8.90;8.75;;;4.50;1.00;;;;;;5017783;28;20342;-77
2023/11/28 08:52:41;;;;;;;8.70;8.60;;;4.50;1.00;;;;;;5016399;28;20241;-78
2023/11/28 08:55:09;;;;;;;8.70;8.50;;;4.60;1.00;;;;;;5019242;28;20249;-78
2023/11/28 08:57:38;;;;;;;8.90;8.70;;;4.50;1.00;;;;;;5015848;28;20250;-78
2023/11/28 09:00:08;;;;;;;8.80;8.60;;;4.50;1.00;;;;;;5019619;28;20296;-78
2023/11/28 09:02:37;;;;;;;8.70;8.50;;;4.40;1.00;;;;;;5022024;28;20207;-78
2023/11/28 09:05:09;;;;;;;8.50;8.20;;;4.40;1.00;;;;;;5019251;28;20268;-78
2023/11/28 09:07:38;;;;;;;8.18;8.07;;;4.40;43.10;;;;;;5018109;28;20247;-78
2023/11/28 09:10:07;;;;;;;8.40;8.30;;;4.50;1.00;;;;;;5019614;28;20217;-78
2023/11/28 09:12:36;;;;;;;8.50;8.30;;;4.40;2.40;;;;;;5017992;28;20213;-79
2023/11/28 09:15:05;;;;;;;8.35;8.15;;;4.50;37.50;;;;;;5015572;28;20230;-79
2023/11/28 09:17:33;;;;;;;8.30;8.20;;;4.60;1.00;;;;;;5018351;28;20245;-78
2023/11/28 09:20:01;;;;;;;8.18;8.00;;;4.60;1.00;;;;;;5018908;28;20289;-78
2023/11/28 09:22:31;;;;;;;8.50;8.30;;;4.60;1.00;;;;;;5015297;28;20798;-78
2023/11/28 09:24:59;;;;;;;8.43;8.23;;;4.60;1.00;;;;;;5013800;28;20222;-78
2023/11/28 09:27:27;;;;;;;8.30;8.20;;;4.50;1.00;;;;;;5017613;28;20195;-78
2023/11/28 09:29:56;;;;;;;8.43;8.30;;;4.50;1.00;;;;;;5016906;28;20491;-79
2023/11/28 09:32:24;;;;;;;8.30;8.20;;;4.50;1.00;;;;;;5014371;28;20207;-79
2023/11/28 09:34:52;;;;;;;8.30;8.10;;;4.60;1.00;;;;;;5020096;28;20226;-78
2023/11/28 09:37:20;;;;;;;8.25;8.15;;;4.60;1.00;;;;;;5019872;28;20285;-78
2023/11/28 09:39:50;;;;;;;8.52;8.32;;;4.60;1.00;;;;;;5021781;28;20190;-78
2023/11/28 09:42:22;;;;;;;9.02;8.82;;;4.60;1.00;;;;;;5023168;28;20282;-78
2023/11/28 09:44:51;;;;;;;8.65;8.48;;;4.60;1.00;;;;;;5023800;28;20230;-79
2023/11/28 09:47:24;;;;;;;8.77;8.57;;;4.60;1.00;;;;;;5032985;28;20228;-78
2023/11/28 09:49:55;;;;;;;8.80;8.60;;;4.50;1.00;;;;;;5022347;28;20257;-78
2023/11/28 09:52:24;;;;;;;9.20;9.00;;;4.60;1.00;;;;;;5019736;28;20203;-78
2023/11/28 09:54:54;;;;;;;8.63;8.43;;;4.50;1.00;;;;;;5018925;28;20288;-78
2023/11/28 09:57:23;;;;;;;8.25;8.15;;;4.50;1.00;;;;;;5023598;28;20195;-78
2023/11/28 09:59:54;;;;;;;8.20;8.10;;;4.40;1.00;;;;;;5021450;28;20274;-79
2023/11/28 10:02:25;;;;;;;8.68;8.50;;;4.50;1.00;;;;;;5017767;28;20265;-78
2023/11/28 10:04:54;;;;;;;8.65;8.55;;;4.50;1.00;;;;;;5017930;28;20211;-79
2023/11/28 10:07:30;;;;;;;8.80;8.60;;;4.40;1.00;;;;;;5017923;28;20195;-78
2023/11/28 10:10:02;;;;;;;9.10;8.90;;;4.40;1.00;;;;;;5022619;28;20200;-78
2023/11/28 10:12:31;;;;;;;8.20;8.10;;;4.50;1.00;;;;;;5019609;28;20461;-79
2023/11/28 10:14:59;;;;;;;8.50;8.30;;;4.50;1.00;;;;;;5019361;28;20222;-78
2023/11/28 10:17:28;;;;;;;8.10;7.90;;;4.40;1.00;;;;;;5022303;28;20212;-79
2023/11/28 10:19:56;;;;;;;8.10;8.00;;;4.40;1.00;;;;;;5022277;28;20486;-78
2023/11/28 10:22:24;;;;;;;8.00;7.90;;;4.50;1.00;;;;;;5021206;28;20646;-79
2023/11/28 10:24:55;;;;;;;8.13;8.02;;;4.40;1.00;;;;;;5022663;28;20700;-78
2023/11/28 10:27:25;;;;;;;8.43;8.23;;;4.50;1.00;;;;;;5022472;28;20262;-78
2023/11/28 10:29:54;;;;;;;8.45;8.25;;;4.50;1.00;;;;;;5020790;28;20191;-78
2023/11/28 10:32:29;;;;;;;8.95;8.75;;;4.40;1.00;;;;;;5018230;28;20205;-78
2023/11/28 10:34:57;;;;;;;8.68;8.48;;;4.30;1.00;;;;;;5019894;28;20224;-78
2023/11/28 10:37:26;;;;;;;8.80;8.60;;;4.40;1.00;;;;;;5019063;28;20221;-79
2023/11/28 10:39:55;;;;;;;8.52;8.32;;;4.40;1.00;;;;;;5022825;28;20222;-78
2023/11/28 10:42:26;;;;;;;8.50;8.40;;;4.50;1.00;;;;;;5020967;28;20202;-79
2023/11/28 10:44:56;;;;;;;8.30;8.10;;;4.30;1.00;;;;;;5020989;28;20356;-79
2023/11/28 10:47:24;;;;;;;8.60;8.40;;;4.30;1.00;;;;;;5018611;28;20767;-78
2023/11/28 10:49:52;;;;;;;8.77;8.50;;;4.40;1.00;;;;;;5020753;28;20458;-78
2023/11/28 10:52:21;;;;;;;8.13;7.93;;;4.30;1.00;;;;;;5019951;28;20288;-78
2023/11/28 10:54:53;;;;;;;8.75;8.55;;;4.40;1.00;;;;;;5020962;28;20597;-78
2023/11/28 10:57:29;;;;;;;8.35;8.15;;;4.30;99.90;;;;;;5022082;28;20201;-78
2023/11/28 11:00:01;;;;;;;8.05;7.75;;;4.30;99.90;;;;;;5020474;28;20226;-77
2023/11/28 11:02:31;;;;;;;8.00;7.80;;;4.30;99.90;;;;;;5021212;28;20221;-78
2023/11/28 11:04:59;;;;;;;9.38;9.07;;;4.30;1.00;;;;;;5020782;28;20695;-78
2023/11/28 11:07:28;;;;;;;9.60;9.20;;;4.20;1.00;;;;;;5016336;28;20202;-78
2023/11/28 11:09:57;;;;;;;8.63;8.43;;;4.20;1.00;;;;;;5020464;28;20186;-78
2023/11/28 11:12:25;;;;;;;9.52;9.32;;;4.30;1.00;;;;;;5016758;28;20202;-78
2023/11/28 11:15:03;;;;;;;9.98;9.68;;;4.30;1.00;;;;;;5015915;28;20210;-78
2023/11/28 11:17:42;;;;;;;9.20;9.00;;;4.30;1.00;;;;;;5017270;28;20210;-78
2023/11/28 11:20:13;;;;;;;9.48;9.18;;;4.30;1.00;;;;;;5019156;28;20267;-79
2023/11/28 11:22:45;;;;;;;8.93;8.73;;;4.30;1.00;;;;;;5018102;28;20260;-79
2023/11/28 11:25:14;;;;;;;8.80;8.60;;;4.20;1.00;;;;;;5018105;28;20254;-79
2023/11/28 11:27:42;;;;;;;9.30;8.57;;;4.10;99.90;;;;;;5019532;28;20249;-79
2023/11/28 11:30:12;;;;;;;8.90;8.70;;;4.10;1.00;;;;;;5016589;28;20654;-78
2023/11/28 11:32:40;;;;;;;9.05;8.85;;;4.20;1.00;;;;;;5020463;28;20206;-79
2023/11/28 11:35:11;;;;;;;9.15;8.95;;;4.30;1.00;;;;;;5024088;28;20309;-79
2023/11/28 11:37:40;;;;;;;8.50;8.30;;;4.20;1.00;;;;;;5017659;28;20203;-78
2023/11/28 11:40:10;;;;;;;9.10;8.80;;;4.10;99.90;;;;;;5015442;28;20229;-78
2023/11/28 11:42:40;;;;;;;8.48;8.27;;;4.10;1.00;;;;;;5016221;28;20770;-78
2023/11/28 11:45:09;;;;;;;8.90;8.70;;;4.10;99.90;;;;;;5018884;28;20218;-78
2023/11/28 11:47:43;;;;;;;8.20;8.00;;;4.10;1.00;;;;;;5016822;28;20208;-78
2023/11/28 11:50:11;;;;;;;8.60;8.40;;;4.10;99.90;;;;;;5017734;28;20190;-79
2023/11/28 11:52:49;;;;;;;8.70;8.50;;;4.20;1.00;;;;;;5019074;28;20201;-78
2023/11/28 11:55:18;;;;;;;8.80;8.50;;;4.10;99.90;;;;;;5019861;28;20718;-78
2023/11/28 11:57:46;;;;;;;9.85;9.50;;;4.10;99.90;;;;;;5020935;28;20214;-78
2023/11/28 12:00:16;;;;;;;9.20;8.90;;;4.20;99.90;;;;;;5017897;28;20215;-78
2023/11/28 12:02:47;;;;;;;9.93;9.63;;;4.10;1.00;;;;;;5021375;28;20203;-78
2023/11/28 12:05:15;;;;;;;9.57;9.27;;;4.20;99.90;;;;;;5010544;28;20227;-78
2023/11/28 12:07:47;;;;;;;9.50;9.30;;;4.20;99.90;;;;;;5019111;28;20195;-78
2023/11/28 12:10:17;;;;;;;9.20;9.00;;;4.20;99.90;;;;;;5012939;28;20235;-78
2023/11/28 12:12:45;;;;;;;8.90;8.70;;;4.20;99.90;;;;;;5016018;28;20226;-78
2023/11/28 12:15:14;;;;;;;9.38;9.10;;;4.20;99.90;;;;;;5015451;28;20309;-78
2023/11/28 12:17:42;;;;;;;9.50;9.20;;;4.20;99.90;;;;;;5016206;28;20205;-78
2023/11/28 12:20:13;;;;;;;8.82;8.63;;;4.20;99.90;;;;;;5018261;28;20222;-78
2023/11/28 12:22:41;;;;;;;9.55;9.25;;;4.20;99.90;;;;;;5020634;28;20557;-79
2023/11/28 12:25:18;;;;;;;9.25;9.05;;;4.10;99.90;;;;;;5018740;28;20229;-78
2023/11/28 12:27:47;;;;;;;9.20;9.00;;;4.10;99.90;;;;;;5015858;28;20198;-78
2023/11/28 12:30:16;;;;;;;9.93;9.55;;;4.10;99.90;;;;;;5012198;28;20213;-77
2023/11/28 12:32:46;;;;;;;9.23;9.02;;;4.10;99.90;;;;;;5016564;28;20298;-78
2023/11/28 12:35:17;;;;;;;9.30;9.10;;;4.10;99.90;;;;;;5017672;28;20307;-78
2023/11/28 12:37:47;;;;;;;9.85;9.43;;;4.10;99.90;;;;;;5017425;28;20835;-76
2023/11/28 12:40:17;;;;;;;9.00;8.80;;;4.10;99.90;;;;;;5017552;28;20226;-78
2023/11/28 12:42:46;;;;;;;9.50;9.10;;;4.00;99.90;;;;;;5015698;28;20284;-78
2023/11/28 12:45:15;;;;;;;9.90;9.60;;;4.10;99.90;;;;;;5017862;28;20233;-78
2023/11/28 12:47:44;;;;;;;9.50;9.20;;;4.00;99.90;;;;;;5019671;28;20207;-78
2023/11/28 12:50:12;;;;;;;9.50;9.10;;;4.10;99.90;;;;;;5018353;28;20228;-78
2023/11/28 12:52:44;;;;;;;9.70;9.40;;;4.10;99.90;;;;;;5022428;28;20210;-78
2023/11/28 12:55:12;;;;;;;9.45;9.15;;;4.00;99.90;;;;;;5018051;28;20484;-78
2023/11/28 12:57:40;;;;;;;10.10;9.80;;;4.00;99.90;;;;;;5020350;28;20198;-78
2023/11/28 13:00:09;;;;;;;10.23;9.83;;;4.10;99.90;;;;;;5020402;28;20771;-79
2023/11/28 13:02:38;;;;;;;10.60;10.00;;;4.10;99.90;;;;;;5019551;28;20834;-79
2023/11/28 13:05:07;;;;;;;9.93;9.50;;;4.10;99.90;;;;;;5015970;28;20218;-79
2023/11/28 13:07:35;;;;;;;9.52;9.23;;;4.10;99.90;;;;;;5017130;28;20728;-78